createdAt,value
2022-11-14T00:02:26.856Z,80.29
2022-11-14T00:05:14.412Z,80.20
2022-11-14T00:08:02.089Z,79.94
2022-11-14T00:10:51.350Z,79.92
2022-11-14T00:13:38.852Z,80.24
2022-11-14T00:16:26.113Z,80.02
2022-11-14T00:19:15.366Z,79.88
2022-11-14T00:22:03.127Z,80.12
2022-11-14T00:24:50.875Z,79.95
2022-11-14T00:27:38.230Z,79.76
2022-11-14T00:30:25.955Z,79.80
2022-11-14T00:33:18.729Z,79.83
2022-11-14T00:36:09.980Z,80.26
2022-11-14T00:38:57.780Z,79.92
2022-11-14T00:41:45.752Z,79.99
2022-11-14T00:44:33.093Z,80.02
2022-11-14T00:47:21.161Z,80.03
2022-11-14T00:50:09.545Z,80.44
2022-11-14T00:52:58.494Z,79.80
2022-11-14T00:55:45.699Z,80.05
2022-11-14T00:58:33.704Z,79.88
2022-11-14T01:01:21.140Z,79.23
2022-11-14T01:04:09.341Z,79.29
2022-11-14T01:06:56.716Z,79.01
2022-11-14T01:09:46.042Z,79.22
2022-11-14T01:12:34.417Z,78.90
2022-11-14T01:15:22.371Z,79.16
2022-11-14T01:18:11.518Z,78.57
2022-11-14T01:20:59.094Z,78.56
2022-11-14T01:23:46.628Z,78.55
2022-11-14T01:26:35.899Z,78.33
2022-11-14T01:29:23.194Z,78.55
2022-11-14T01:32:11.267Z,78.20
2022-11-14T01:34:58.894Z,78.23
2022-11-14T01:37:46.671Z,78.06
2022-11-14T01:40:34.309Z,77.89
2022-11-14T01:43:28.893Z,78.28
2022-11-14T01:46:20.380Z,77.74
2022-11-14T01:49:16.256Z,77.87
2022-11-14T01:52:07.449Z,78.19
2022-11-14T01:55:02.334Z,78.00
2022-11-14T01:57:50.822Z,77.65
2022-11-14T02:00:40.154Z,77.95
2022-11-14T02:03:27.759Z,77.52
2022-11-14T02:06:17.910Z,77.38
2022-11-14T02:09:08.131Z,77.96
2022-11-14T02:11:58.853Z,77.57
2022-11-14T02:14:48.475Z,77.39
2022-11-14T02:17:37.549Z,77.33
2022-11-14T02:20:28.708Z,77.66
2022-11-14T02:23:20.596Z,77.10
2022-11-14T02:26:07.854Z,76.92
2022-11-14T02:28:56.478Z,77.02
2022-11-14T02:31:44.086Z,76.78
2022-11-14T02:34:32.468Z,76.97
2022-11-14T02:37:21.340Z,77.04
2022-11-14T02:40:10.624Z,76.92
2022-11-14T02:42:58.053Z,76.55
2022-11-14T02:45:45.952Z,76.51
2022-11-14T02:48:33.223Z,76.08
2022-11-14T02:51:21.352Z,76.16
2022-11-14T02:54:10.358Z,75.45
2022-11-14T02:56:58.173Z,75.47
2022-11-14T02:59:45.646Z,75.63
2022-11-14T03:02:33.380Z,75.57
2022-11-14T03:05:21.596Z,75.08
2022-11-14T03:08:09.165Z,75.10
2022-11-14T03:11:04.470Z,75.18
2022-11-14T03:13:52.413Z,75.02
2022-11-14T03:16:39.894Z,75.17
2022-11-14T03:19:27.351Z,74.51
2022-11-14T03:22:15.272Z,74.58
2022-11-14T03:25:03.340Z,74.76
2022-11-14T03:27:51.873Z,74.72
2022-11-14T03:30:39.680Z,74.77
2022-11-14T03:33:27.300Z,75.13
2022-11-14T03:36:15.292Z,75.09
2022-11-14T03:39:02.795Z,75.12
2022-11-14T03:41:50.676Z,74.94
2022-11-14T03:44:39.360Z,75.03
2022-11-14T03:47:27.306Z,75.61
2022-11-14T03:50:14.480Z,75.46
2022-11-14T03:53:02.401Z,75.51
2022-11-14T03:55:49.771Z,75.75
2022-11-14T03:58:37.226Z,74.83
2022-11-14T04:01:26.174Z,75.32
2022-11-14T04:04:14.516Z,75.43
2022-11-14T04:07:02.153Z,75.32
2022-11-14T04:09:51.959Z,75.27
2022-11-14T04:12:39.484Z,75.55
2022-11-14T04:15:27.000Z,75.60
2022-11-14T04:18:16.026Z,75.68
2022-11-14T04:21:04.096Z,75.73
2022-11-14T04:23:51.962Z,75.27
2022-11-14T04:26:39.468Z,75.66
2022-11-14T04:29:26.867Z,75.69
2022-11-14T04:32:14.813Z,75.86
2022-11-14T04:35:03.819Z,75.36
2022-11-14T04:37:51.289Z,75.79
2022-11-14T04:40:39.042Z,75.70
2022-11-14T04:43:26.922Z,75.63
2022-11-14T04:46:14.294Z,75.81
2022-11-14T04:49:02.341Z,75.99
2022-11-14T04:51:51.304Z,75.71
2022-11-14T04:54:38.939Z,75.60
2022-11-14T04:57:26.187Z,76.04
2022-11-14T05:00:15.116Z,76.00
2022-11-14T05:03:02.758Z,75.77
2022-11-14T05:05:50.410Z,76.16
2022-11-14T05:08:39.290Z,75.92
2022-11-14T05:11:29.378Z,76.22
2022-11-14T05:14:17.134Z,76.09
2022-11-14T05:17:04.813Z,75.93
2022-11-14T05:19:52.528Z,76.28
2022-11-14T05:22:40.937Z,76.60
2022-11-14T05:25:29.875Z,76.74
2022-11-14T05:28:17.547Z,76.65
2022-11-14T05:31:06.140Z,76.76
2022-11-14T05:33:53.767Z,76.78
2022-11-14T05:36:41.164Z,77.03
2022-11-14T05:39:29.107Z,77.30
2022-11-14T05:42:18.127Z,77.34
2022-11-14T05:45:06.894Z,77.00
2022-11-14T05:47:55.023Z,77.18
2022-11-14T05:50:42.800Z,77.21
2022-11-14T05:53:31.254Z,77.23
2022-11-14T05:56:19.243Z,77.53
2022-11-14T05:59:08.167Z,77.40
2022-11-14T06:01:56.356Z,77.55
2022-11-14T06:04:43.956Z,77.08
2022-11-14T06:07:31.769Z,77.16
2022-11-14T06:10:19.231Z,77.76
2022-11-14T06:13:06.913Z,77.57
2022-11-14T06:15:59.348Z,77.38
2022-11-14T06:18:48.000Z,77.51
2022-11-14T06:21:35.509Z,77.93
2022-11-14T06:24:22.968Z,77.58
2022-11-14T06:27:10.311Z,78.13
2022-11-14T06:29:58.251Z,77.78
2022-11-14T06:32:47.123Z,77.81
2022-11-14T06:35:35.439Z,78.09
2022-11-14T06:38:23.054Z,78.19
2022-11-14T06:41:13.147Z,78.02
2022-11-14T06:44:00.687Z,78.17
2022-11-14T06:46:48.540Z,78.23
2022-11-14T06:49:40.484Z,78.68
2022-11-14T06:52:28.510Z,78.59
2022-11-14T06:55:18.644Z,78.75
2022-11-14T06:58:10.438Z,78.61
2022-11-14T07:00:58.603Z,78.63
2022-11-14T07:03:47.399Z,79.10
2022-11-14T07:06:36.314Z,79.26
2022-11-14T07:09:23.888Z,79.40
2022-11-14T07:12:11.509Z,79.39
2022-11-14T07:14:59.151Z,79.42
2022-11-14T07:17:48.514Z,79.23
2022-11-14T07:20:36.483Z,79.66
2022-11-14T07:23:25.303Z,79.78
2022-11-14T07:26:13.775Z,79.79
2022-11-14T07:29:02.712Z,79.78
2022-11-14T07:31:51.296Z,79.79
2022-11-14T07:34:39.239Z,80.14
2022-11-14T07:37:27.338Z,80.11
2022-11-14T07:40:16.891Z,79.90
2022-11-14T07:43:04.796Z,79.79
2022-11-14T07:45:52.539Z,80.10
2022-11-14T07:48:40.708Z,80.11
2022-11-14T07:51:28.060Z,79.77
2022-11-14T07:54:15.907Z,79.96
2022-11-14T07:57:04.656Z,79.87
2022-11-14T07:59:52.936Z,79.70
2022-11-14T08:02:40.334Z,80.18
2022-11-14T08:05:27.871Z,79.92
2022-11-14T08:08:15.671Z,79.77
2022-11-14T08:11:03.652Z,79.90
2022-11-14T08:13:52.719Z,79.83
2022-11-14T08:16:41.056Z,80.11
2022-11-14T08:19:28.366Z,79.98
2022-11-14T08:22:16.012Z,80.03
2022-11-14T08:25:03.733Z,80.11
2022-11-14T08:27:51.469Z,79.81
2022-11-14T08:30:40.188Z,79.82
2022-11-14T08:33:28.114Z,80.12
2022-11-14T08:36:15.590Z,80.33
2022-11-14T08:39:03.594Z,80.08
2022-11-14T08:41:51.164Z,79.63
2022-11-14T08:44:39.195Z,80.17
2022-11-14T08:47:28.005Z,79.81
2022-11-14T08:50:16.047Z,79.71
2022-11-14T08:53:03.522Z,80.10
2022-11-14T08:55:51.605Z,79.86
2022-11-14T08:58:39.217Z,79.87
2022-11-14T09:01:27.526Z,80.19
2022-11-14T09:04:16.758Z,80.03
2022-11-14T09:07:04.924Z,80.25
2022-11-14T09:09:52.387Z,80.41
2022-11-14T09:12:39.987Z,80.08
2022-11-14T09:15:28.478Z,80.13
2022-11-14T09:18:16.358Z,80.15
2022-11-14T09:21:07.488Z,79.95
2022-11-14T09:24:00.511Z,79.87
2022-11-14T09:26:55.255Z,79.57
2022-11-14T09:29:44.853Z,79.50
2022-11-14T09:32:32.465Z,79.77
2022-11-14T09:35:20.503Z,79.50
2022-11-14T09:38:12.447Z,79.74
2022-11-14T09:41:11.662Z,79.64
2022-11-14T09:44:20.508Z,79.22
2022-11-14T09:47:18.109Z,79.30
2022-11-14T09:50:14.098Z,79.41
2022-11-14T09:53:08.949Z,78.62
2022-11-14T09:55:58.664Z,78.47
2022-11-14T09:58:46.361Z,78.54
2022-11-14T10:01:45.177Z,78.41
2022-11-14T10:04:50.683Z,78.28
2022-11-14T10:07:52.892Z,78.29
2022-11-14T10:10:51.471Z,78.24
2022-11-14T10:13:54.163Z,78.53
2022-11-14T10:16:48.241Z,78.08
2022-11-14T10:19:43.263Z,78.32
2022-11-14T10:22:51.602Z,77.79
2022-11-14T10:25:50.643Z,77.63
2022-11-14T10:29:03.960Z,77.61
2022-11-14T10:32:01.628Z,77.66
2022-11-14T10:34:57.574Z,77.03
2022-11-14T10:37:54.433Z,77.28
2022-11-14T10:40:45.699Z,77.28
2022-11-14T10:43:39.252Z,77.55
2022-11-14T10:46:31.822Z,77.68
2022-11-14T10:49:23.156Z,77.87
2022-11-14T10:52:16.379Z,77.75
2022-11-14T10:55:09.303Z,77.90
2022-11-14T10:57:58.078Z,77.70
2022-11-14T11:00:45.584Z,77.70
2022-11-14T11:03:45.631Z,77.77
2022-11-14T11:06:33.199Z,78.18
2022-11-14T11:09:45.180Z,78.53
2022-11-14T11:12:46.047Z,77.97
2022-11-14T11:15:42.166Z,78.22
2022-11-14T11:18:31.720Z,78.54
2022-11-14T11:21:23.108Z,78.20
2022-11-14T11:24:11.038Z,78.68
2022-11-14T11:27:14.506Z,78.37
2022-11-14T11:30:23.131Z,78.22
2022-11-14T11:33:25.800Z,78.67
2022-11-14T11:36:17.700Z,78.68
2022-11-14T11:39:06.866Z,78.90
2022-11-14T11:42:11.988Z,78.92
2022-11-14T11:45:03.492Z,78.91
2022-11-14T11:47:57.246Z,78.77
2022-11-14T11:50:45.163Z,79.00
2022-11-14T11:53:39.940Z,78.84
2022-11-14T11:56:32.951Z,79.08
2022-11-14T11:59:34.618Z,79.07
2022-11-14T12:02:25.499Z,79.11
2022-11-14T12:05:17.458Z,79.01
2022-11-14T12:08:09.640Z,78.87
2022-11-14T12:10:59.238Z,79.04
2022-11-14T12:13:55.346Z,78.94
2022-11-14T12:17:11.493Z,79.19
2022-11-14T12:20:16.966Z,79.36
2022-11-14T12:23:37.996Z,79.32
2022-11-14T12:26:38.283Z,79.41
2022-11-14T12:29:47.714Z,79.57
2022-11-14T12:32:41.912Z,79.61
2022-11-14T12:35:33.353Z,79.78
2022-11-14T12:38:23.779Z,79.88
2022-11-14T12:41:11.797Z,79.73
2022-11-14T12:44:33.066Z,79.90
2022-11-14T12:47:23.810Z,80.09
2022-11-14T12:50:40.740Z,80.09
2022-11-14T12:53:45.148Z,79.78
2022-11-14T12:56:57.540Z,79.84
2022-11-14T12:59:58.570Z,79.62
2022-11-14T13:03:08.093Z,79.91
2022-11-14T13:06:02.279Z,79.86
2022-11-14T13:09:19.791Z,80.05
2022-11-14T13:12:48.059Z,79.87
2022-11-14T13:16:05.210Z,80.24
2022-11-14T13:19:14.593Z,80.31
2022-11-14T13:22:40.555Z,80.32
2022-11-14T13:25:28.190Z,80.27
2022-11-14T13:28:48.058Z,80.35
2022-11-14T13:31:48.702Z,80.25
2022-11-14T13:34:44.704Z,80.37
2022-11-14T13:37:58.841Z,80.21
2022-11-14T13:40:55.302Z,80.36
2022-11-14T13:43:57.464Z,80.16
2022-11-14T13:47:03.218Z,80.61
2022-11-14T13:50:04.609Z,80.24
2022-11-14T13:52:53.350Z,80.62
2022-11-14T13:55:54.350Z,80.32
2022-11-14T13:58:59.155Z,80.24
2022-11-14T14:02:05.912Z,80.28
2022-11-14T14:05:05.275Z,80.17
2022-11-14T14:08:23.579Z,80.47
2022-11-14T14:11:28.252Z,80.50
2022-11-14T14:14:32.765Z,80.04
2022-11-14T14:17:28.705Z,80.32
2022-11-14T14:20:32.627Z,80.37
2022-11-14T14:23:34.488Z,80.19
2022-11-14T14:26:31.469Z,80.05
2022-11-14T14:29:25.596Z,80.66
2022-11-14T14:32:14.710Z,80.63
2022-11-14T14:35:14.693Z,80.64
2022-11-14T14:38:11.264Z,80.73
2022-11-14T14:40:59.177Z,80.56
2022-11-14T14:43:54.425Z,80.58
2022-11-14T14:46:42.367Z,80.75
2022-11-14T14:49:35.832Z,81.32
2022-11-14T14:52:29.680Z,81.25
2022-11-14T14:55:29.591Z,81.06
2022-11-14T14:58:25.066Z,81.01
2022-11-14T15:01:15.902Z,80.77
2022-11-14T15:04:06.384Z,80.77
2022-11-14T15:06:56.148Z,80.96
2022-11-14T15:09:54.460Z,81.00
2022-11-14T15:12:44.237Z,81.21
2022-11-14T15:15:32.729Z,81.06
2022-11-14T15:18:25.490Z,81.17
2022-11-14T15:21:24.454Z,81.41
2022-11-14T15:24:18.205Z,81.60
2022-11-14T15:27:07.168Z,81.61
2022-11-14T15:30:02.088Z,81.30
2022-11-14T15:32:51.274Z,81.45
2022-11-14T15:35:40.702Z,81.44
2022-11-14T15:38:43.550Z,81.61
2022-11-14T15:41:33.053Z,81.42
2022-11-14T15:44:34.558Z,81.25
2022-11-14T15:47:25.444Z,81.41
2022-11-14T15:50:33.326Z,81.46
2022-11-14T15:53:25.572Z,81.45
2022-11-14T15:56:14.566Z,81.56
2022-11-14T15:59:03.935Z,81.79
2022-11-14T16:01:55.310Z,81.47
2022-11-14T16:04:47.883Z,81.83
2022-11-14T16:07:36.386Z,81.65
2022-11-14T16:10:26.314Z,81.91
2022-11-14T16:13:13.935Z,81.89
2022-11-14T16:16:01.468Z,82.05
2022-11-14T16:18:49.312Z,81.69
2022-11-14T16:21:39.723Z,81.97
2022-11-14T16:24:32.514Z,82.10
2022-11-14T16:27:22.393Z,81.62
2022-11-14T16:30:12.364Z,81.94
2022-11-14T16:33:00.763Z,81.88
2022-11-14T16:35:48.737Z,81.96
2022-11-14T16:38:37.472Z,82.17
2022-11-14T16:41:25.390Z,81.53
2022-11-14T16:44:17.687Z,81.64
2022-11-14T16:47:05.712Z,81.80
2022-11-14T16:49:53.162Z,81.97
2022-11-14T16:52:41.487Z,81.91
2022-11-14T16:55:30.504Z,81.49
2022-11-14T16:58:18.381Z,81.64
2022-11-14T17:01:11.605Z,81.62
2022-11-14T17:04:01.807Z,81.79
2022-11-14T17:06:49.140Z,81.66
2022-11-14T17:09:37.360Z,82.13
2022-11-14T17:12:26.333Z,82.17
2022-11-14T17:15:14.447Z,82.36
2022-11-14T17:18:01.716Z,82.22
2022-11-14T17:20:49.469Z,81.93
2022-11-14T17:23:36.764Z,81.74
2022-11-14T17:26:24.563Z,81.93
2022-11-14T17:29:13.209Z,81.64
2022-11-14T17:32:01.039Z,81.80
2022-11-14T17:34:48.763Z,81.73
2022-11-14T17:37:36.793Z,81.81
2022-11-14T17:40:24.201Z,81.85
2022-11-14T17:43:12.011Z,81.72
2022-11-14T17:46:01.165Z,82.25
2022-11-14T17:48:49.525Z,81.93
2022-11-14T17:51:36.869Z,81.74
2022-11-14T17:54:24.792Z,81.78
2022-11-14T17:57:13.231Z,82.16
2022-11-14T18:00:01.158Z,81.96
2022-11-14T18:02:49.972Z,82.26
2022-11-14T18:05:37.590Z,82.42
2022-11-14T18:08:25.890Z,82.30
2022-11-14T18:11:15.330Z,82.01
2022-11-14T18:14:03.118Z,81.74
2022-11-14T18:17:11.891Z,81.52
2022-11-14T18:20:00.785Z,81.90
2022-11-14T18:22:48.407Z,81.57
2022-11-14T18:25:36.003Z,81.90
2022-11-14T18:28:24.068Z,81.73
2022-11-14T18:31:13.515Z,81.88
2022-11-14T18:34:02.754Z,81.77
2022-11-14T18:36:52.026Z,82.15
2022-11-14T18:39:40.014Z,81.93
2022-11-14T18:42:27.436Z,82.36
2022-11-14T18:45:15.795Z,82.57
2022-11-14T18:48:03.097Z,81.89
2022-11-14T18:50:50.933Z,81.96
2022-11-14T18:53:40.605Z,81.95
2022-11-14T18:56:28.482Z,82.25
2022-11-14T18:59:15.786Z,81.74
2022-11-14T19:02:03.883Z,81.90
2022-11-14T19:04:51.776Z,82.61
2022-11-14T19:07:39.375Z,82.61
2022-11-14T19:10:28.197Z,82.25
2022-11-14T19:13:16.153Z,82.00
2022-11-14T19:16:04.688Z,82.61
2022-11-14T19:18:52.450Z,81.99
2022-11-14T19:21:40.225Z,81.69
2022-11-14T19:24:27.881Z,82.26
2022-11-14T19:27:16.952Z,81.89
2022-11-14T19:30:05.011Z,81.74
2022-11-14T19:32:52.568Z,81.89
2022-11-14T19:35:40.519Z,82.55
2022-11-14T19:38:28.028Z,82.26
2022-11-14T19:41:17.817Z,82.26
2022-11-14T19:44:06.682Z,82.40
2022-11-14T19:46:54.765Z,82.55
2022-11-14T19:49:42.805Z,82.33
2022-11-14T19:52:30.674Z,82.06
2022-11-14T19:55:18.034Z,82.16
2022-11-14T19:58:06.872Z,82.61
2022-11-14T20:01:02.357Z,82.79
2022-11-14T20:03:54.048Z,82.18
2022-11-14T20:06:42.366Z,82.67
2022-11-14T20:09:30.923Z,82.41
2022-11-14T20:12:18.370Z,82.59
2022-11-14T20:15:06.733Z,83.20
2022-11-14T20:17:55.436Z,82.46
2022-11-14T20:20:43.692Z,82.81
2022-11-14T20:23:31.491Z,82.82
2022-11-14T20:26:20.680Z,83.14
2022-11-14T20:29:08.259Z,83.34
2022-11-14T20:31:55.927Z,83.15
2022-11-14T20:34:45.240Z,83.23
2022-11-14T20:37:33.335Z,83.26
2022-11-14T20:40:21.289Z,83.54
2022-11-14T20:43:09.700Z,83.45
2022-11-14T20:45:58.808Z,83.35
2022-11-14T20:48:47.788Z,83.00
2022-11-14T20:51:37.632Z,83.08
2022-11-14T20:54:26.957Z,83.35
2022-11-14T20:57:14.579Z,83.47
2022-11-14T21:00:02.489Z,83.41
2022-11-14T21:02:50.237Z,83.04
2022-11-14T21:05:40.593Z,83.37
2022-11-14T21:08:29.733Z,82.85
2022-11-14T21:11:19.108Z,82.97
2022-11-14T21:14:06.583Z,83.43
2022-11-14T21:16:54.607Z,83.37
2022-11-14T21:19:42.115Z,83.49
2022-11-14T21:22:30.160Z,83.47
2022-11-14T21:25:19.465Z,83.26
2022-11-14T21:28:07.406Z,83.61
2022-11-14T21:30:54.808Z,83.44
2022-11-14T21:33:42.658Z,83.38
2022-11-14T21:36:44.468Z,82.88
2022-11-14T21:39:33.449Z,83.58
2022-11-14T21:42:22.361Z,83.10
2022-11-14T21:45:11.539Z,83.29
2022-11-14T21:47:59.028Z,83.83
2022-11-14T21:50:46.752Z,83.96
2022-11-14T21:53:34.691Z,83.87
2022-11-14T21:56:23.902Z,84.00
2022-11-14T21:59:18.371Z,84.05
2022-11-14T22:02:23.670Z,83.92
2022-11-14T22:05:11.296Z,84.33
2022-11-14T22:07:59.251Z,84.25
2022-11-14T22:10:46.690Z,83.88
2022-11-14T22:13:34.587Z,84.46
2022-11-14T22:16:23.942Z,83.78
2022-11-14T22:19:11.540Z,84.47
2022-11-14T22:21:59.136Z,83.97
2022-11-14T22:24:46.828Z,84.67
2022-11-14T22:27:34.531Z,83.99
2022-11-14T22:30:22.255Z,84.07
2022-11-14T22:33:11.358Z,84.09
2022-11-14T22:36:03.429Z,84.08
2022-11-14T22:38:52.377Z,83.82
2022-11-14T22:41:39.966Z,84.46
2022-11-14T22:44:27.658Z,84.37
2022-11-14T22:47:15.487Z,83.96
2022-11-14T22:50:04.592Z,84.08
2022-11-14T22:52:52.171Z,84.11
2022-11-14T22:55:46.965Z,83.92
2022-11-14T22:58:36.637Z,84.16
2022-11-14T23:01:26.524Z,84.58
2022-11-14T23:04:14.611Z,84.19
2022-11-14T23:07:03.503Z,84.32
2022-11-14T23:09:51.275Z,84.96
2022-11-14T23:12:38.802Z,84.61
2022-11-14T23:15:26.857Z,84.85
2022-11-14T23:18:14.847Z,85.15
2022-11-14T23:21:05.709Z,84.50
2022-11-14T23:23:59.035Z,84.91
2022-11-14T23:26:46.930Z,84.70
2022-11-14T23:29:34.210Z,84.63
2022-11-14T23:32:22.155Z,84.66
2022-11-14T23:35:10.247Z,84.34
2022-11-14T23:38:02.907Z,84.77
2022-11-14T23:40:54.992Z,85.16
2022-11-14T23:43:42.615Z,84.71
2022-11-14T23:46:30.131Z,84.62
2022-11-14T23:49:17.867Z,84.62
2022-11-14T23:52:05.490Z,85.05
2022-11-14T23:54:53.220Z,84.77
2022-11-14T23:57:41.977Z,84.47
